Time;durP1;ratioP1;P1;durP2;ratioP2;P2;SDS_P1;SDS_P2;PMS_P1;PMS_P2;Temp;Humidity;BMP_temperature;BMP_pressure;BME280_temperature;BME280_humidity;BME280_pressure;Samples;Min_cycle;Max_cycle;Signal;HPM_P1;HPM_P2
2024/03/09 00:00:16;;;;;;;27.50;15.40;;;;;;;4.96;65.29;99971.56;4969061;28;20534;-80
2024/03/09 00:02:45;;;;;;;25.90;16.58;;;;;;;4.94;65.69;99970.81;4969158;28;20131;-81
2024/03/09 00:05:12;;;;;;;24.38;15.23;;;;;;;4.88;66.29;99977.34;4971606;28;20054;-82
2024/03/09 00:07:38;;;;;;;24.70;15.85;;;;;;;4.89;65.89;99970.31;4991977;28;20086;-80
2024/03/09 00:10:06;;;;;;;27.58;15.77;;;;;;;4.89;65.86;99965.06;4985913;28;20078;-80
2024/03/09 00:12:35;;;;;;;27.20;16.35;;;;;;;4.93;66.19;99962.13;4974295;28;20125;-80
2024/03/09 00:15:03;;;;;;;29.83;15.43;;;;;;;4.91;66.20;99965.78;4982159;28;20154;-81
2024/03/09 00:17:30;;;;;;;28.23;15.70;;;;;;;4.89;66.03;99970.31;4962868;28;20054;-81
2024/03/09 00:19:58;;;;;;;27.08;15.57;;;;;;;4.92;66.39;99962.25;4960981;28;20090;-80
2024/03/09 00:22:25;;;;;;;26.02;15.80;;;;;;;4.89;66.01;99952.81;4960050;28;20050;-81
2024/03/09 00:24:53;;;;;;;25.63;14.90;;;;;;;4.94;65.75;99950.66;4959774;29;20491;-81
2024/03/09 00:27:24;;;;;;;24.35;15.35;;;;;;;4.99;66.03;99947.69;4961747;28;20051;-78
2024/03/09 00:29:54;;;;;;;23.23;14.57;;;;;;;5.01;65.73;99944.03;4971970;28;20054;-80
2024/03/09 00:32:21;;;;;;;23.20;14.32;;;;;;;4.98;66.04;99949.50;4975925;28;20150;-80
2024/03/09 00:34:48;;;;;;;23.83;14.15;;;;;;;4.99;66.37;99943.28;4970620;28;20535;-81
2024/03/09 00:37:16;;;;;;;23.35;13.98;;;;;;;5.06;65.66;99948.91;4975696;28;20146;-81
2024/03/09 00:39:42;;;;;;;23.65;14.55;;;;;;;5.06;65.60;99947.13;4978903;28;20102;-80
2024/03/09 00:42:12;;;;;;;24.38;14.75;;;;;;;5.12;65.96;99934.50;4962467;28;20082;-78
2024/03/09 00:44:41;;;;;;;24.58;14.85;;;;;;;5.09;65.78;99925.09;4976445;28;20054;-81
2024/03/09 00:47:09;;;;;;;23.35;13.60;;;;;;;5.10;66.15;99920.69;4970692;28;20482;-82
2024/03/09 00:49:35;;;;;;;24.13;14.05;;;;;;;5.08;65.79;99915.53;4968312;29;20051;-81
2024/03/09 00:52:03;;;;;;;23.10;14.80;;;;;;;5.20;65.89;99906.75;4970056;28;20137;-80
2024/03/09 00:54:29;;;;;;;23.90;14.98;;;;;;;5.22;65.70;99909.22;4969122;28;20057;-81
2024/03/09 00:56:56;;;;;;;24.65;14.68;;;;;;;5.17;65.52;99911.38;4977199;28;20082;-80
2024/03/09 00:59:23;;;;;;;22.55;14.52;;;;;;;5.24;65.63;99917.84;4976522;28;20089;-80
2024/03/09 01:01:50;;;;;;;21.17;13.93;;;;;;;5.18;65.93;99907.78;4970279;28;20134;-79
2024/03/09 01:04:18;;;;;;;22.13;14.15;;;;;;;5.20;65.88;99906.75;4964021;28;20386;-80
2024/03/09 01:06:45;;;;;;;20.80;13.77;;;;;;;5.16;66.41;99907.91;4966202;28;20110;-80
2024/03/09 01:09:13;;;;;;;22.65;14.23;;;;;;;5.17;66.15;99906.13;4964056;29;20074;-80
2024/03/09 01:11:40;;;;;;;22.45;14.20;;;;;;;5.16;66.60;99909.72;4959607;28;20050;-79
2024/03/09 01:14:07;;;;;;;23.00;13.90;;;;;;;5.19;65.82;99909.50;4977868;28;20421;-80
2024/03/09 01:16:34;;;;;;;19.67;13.30;;;;;;;5.20;65.94;99908.53;4975756;28;20174;-80
2024/03/09 01:19:01;;;;;;;22.38;14.20;;;;;;;5.24;66.09;99917.84;4978199;28;20051;-81
2024/03/09 01:21:29;;;;;;;23.75;14.15;;;;;;;5.21;66.32;99910.19;4960920;28;20056;-81
2024/03/09 01:23:55;;;;;;;20.75;14.05;;;;;;;5.29;65.64;99907.81;4966511;28;20051;-81
2024/03/09 01:26:24;;;;;;;22.48;14.60;;;;;;;5.27;65.51;99899.25;4961404;29;20509;-81
2024/03/09 01:28:51;;;;;;;22.90;14.75;;;;;;;5.22;66.36;99904.00;4961323;28;20363;-82
2024/03/09 01:31:18;;;;;;;23.05;14.10;;;;;;;5.19;65.82;99899.00;4956350;29;20400;-82
2024/03/09 01:33:45;;;;;;;21.52;13.55;;;;;;;5.20;66.22;99895.41;4964737;28;20086;-82
2024/03/09 01:36:12;;;;;;;23.52;13.85;;;;;;;5.17;66.65;99899.09;4980468;28;20082;-79
2024/03/09 01:38:40;;;;;;;20.05;13.00;;;;;;;5.20;66.22;99898.03;4973514;28;20069;-83
2024/03/09 01:41:07;;;;;;;23.55;15.07;;;;;;;5.23;65.89;99887.31;4969281;28;20057;-80
2024/03/09 01:43:34;;;;;;;22.48;13.82;;;;;;;5.24;66.32;99892.44;4961538;29;20089;-80
2024/03/09 01:46:02;;;;;;;21.77;13.77;;;;;;;5.25;65.94;99880.16;4954953;28;20062;-80
2024/03/09 01:48:29;;;;;;;23.08;14.18;;;;;;;5.29;65.88;99877.19;4969982;28;20114;-80
2024/03/09 01:50:56;;;;;;;23.00;14.38;;;;;;;5.27;65.89;99875.63;4970521;28;20059;-81
2024/03/09 01:53:24;;;;;;;24.02;14.95;;;;;;;5.23;66.29;99874.22;4967905;28;20130;-81
2024/03/09 01:55:52;;;;;;;21.23;13.38;;;;;;;5.34;66.28;99871.56;4979958;28;20051;-81
2024/03/09 01:58:21;;;;;;;20.48;12.93;;;;;;;5.40;65.76;99872.88;4968082;28;20051;-81
2024/03/09 02:00:55;;;;;;;20.48;13.48;;;;;;;5.44;65.45;99862.00;4956908;28;20062;-82
2024/03/09 02:03:24;;;;;;;19.48;12.98;;;;;;;5.41;65.89;99867.53;4960658;28;20073;-82
2024/03/09 02:05:51;;;;;;;22.10;13.95;;;;;;;5.47;65.74;99872.28;4959800;29;20078;-82
2024/03/09 02:08:19;;;;;;;22.20;14.48;;;;;;;5.45;65.25;99863.72;4968448;28;20089;-80
2024/03/09 02:10:47;;;;;;;23.73;14.38;;;;;;;5.43;65.83;99859.53;4979042;28;20054;-81
2024/03/09 02:13:17;;;;;;;21.05;13.30;;;;;;;5.39;65.98;99868.59;4978202;28;20105;-80
2024/03/09 02:15:47;;;;;;;21.35;14.10;;;;;;;5.42;65.87;99863.09;4978722;28;20149;-80
2024/03/09 02:18:15;;;;;;;26.60;14.52;;;;;;;5.39;65.61;99864.16;4972938;28;20053;-79
2024/03/09 02:20:41;;;;;;;22.58;13.95;;;;;;;5.42;65.70;99855.22;4965960;28;20050;-79
2024/03/09 02:23:09;;;;;;;20.60;14.18;;;;;;;5.40;65.88;99855.34;4966971;28;20382;-80
2024/03/09 02:25:39;;;;;;;21.05;13.95;;;;;;;5.40;65.54;99846.63;4968646;28;20059;-79
2024/03/09 02:28:06;;;;;;;21.98;14.27;;;;;;;5.36;65.83;99848.69;4967767;28;20061;-79
2024/03/09 02:30:33;;;;;;;20.67;13.90;;;;;;;5.35;66.42;99846.16;4967555;28;20055;-79
2024/03/09 02:32:59;;;;;;;22.77;14.15;;;;;;;5.44;65.63;99853.31;4967555;28;20074;-79
2024/03/09 02:35:27;;;;;;;21.45;13.85;;;;;;;5.41;66.41;99846.53;4974084;28;20078;-80
2024/03/09 02:37:55;;;;;;;21.45;14.48;;;;;;;5.43;65.89;99839.38;4974478;28;20461;-81
2024/03/09 02:40:22;;;;;;;22.00;13.68;;;;;;;5.47;65.25;99845.22;4970774;28;20081;-81
2024/03/09 02:45:59;;;;;;;23.67;14.70;;;;;;;5.47;65.23;99843.41;5084214;27;1364252;-80
2024/03/09 02:48:27;;;;;;;21.92;13.57;;;;;;;5.50;65.71;99840.56;5104768;28;20048;-81
2024/03/09 02:51:01;;;;;;;22.10;14.63;;;;;;;5.41;66.13;99840.44;5106836;28;20052;-82
2024/03/09 02:53:28;;;;;;;21.05;14.02;;;;;;;5.46;65.92;99844.38;5109793;28;20454;-81
2024/03/09 02:56:06;;;;;;;21.77;13.90;;;;;;;5.44;65.76;99834.94;5116522;28;20083;-82
2024/03/09 02:58:34;;;;;;;23.65;14.55;;;;;;;5.48;65.38;99837.22;5101096;28;20166;-80
2024/03/09 03:01:20;;;;;;;21.65;14.27;;;;;;;5.47;65.20;99826.84;5107666;28;20128;-82
2024/03/09 03:03:47;;;;;;;22.27;14.10;;;;;;;5.45;65.68;99837.47;5116923;28;20056;-82
2024/03/09 03:09:27;;;;;;;24.10;14.68;;;;;;;5.43;65.66;99828.03;5096204;28;20055;-82
2024/03/09 03:11:54;;;;;;;22.42;14.40;;;;;;;5.38;65.95;99827.56;5105885;28;20494;-82
2024/03/09 03:14:21;;;;;;;23.65;15.32;;;;;;;5.42;66.21;99826.38;5111544;28;20047;-81
2024/03/09 03:16:49;;;;;;;22.08;14.27;;;;;;;5.40;65.60;99829.09;5095953;28;20083;-79
2024/03/09 03:19:15;;;;;;;24.08;14.38;;;;;;;5.42;65.68;99832.44;5094978;28;20091;-79
2024/03/09 03:21:42;;;;;;;20.73;12.63;;;;;;;5.46;64.87;99827.81;5110503;28;20166;-78
2024/03/09 03:24:10;;;;;;;22.08;13.75;;;;;;;5.40;65.33;99823.84;5102389;28;20048;-78
2024/03/09 03:26:36;;;;;;;21.55;14.13;;;;;;;5.44;65.25;99820.03;5104948;28;20048;-79
2024/03/09 03:29:03;;;;;;;22.23;15.00;;;;;;;5.52;64.98;99822.06;5108896;28;20047;-80
2024/03/09 03:31:30;;;;;;;20.67;14.00;;;;;;;5.47;65.76;99819.78;5103575;28;20066;-81
2024/03/09 03:34:00;;;;;;;22.45;14.63;;;;;;;5.44;65.37;99825.28;5095110;28;20112;-81
2024/03/09 03:36:27;;;;;;;20.42;14.52;;;;;;;5.45;65.72;99821.72;5096309;28;20131;-81
2024/03/09 03:39:02;;;;;;;21.73;14.85;;;;;;;5.44;65.42;99813.94;5095405;28;20075;-81
2024/03/09 03:41:29;;;;;;;22.48;14.60;;;;;;;5.45;65.86;99811.22;5095605;28;20048;-80
2024/03/09 03:43:56;;;;;;;23.35;14.80;;;;;;;5.44;65.83;99812.16;5094114;28;20090;-80
2024/03/09 03:46:22;;;;;;;24.15;15.13;;;;;;;5.49;65.70;99815.28;5095257;28;20083;-81
2024/03/09 03:48:49;;;;;;;20.92;14.60;;;;;;;5.48;66.11;99803.09;5095001;28;20088;-81
2024/03/09 03:51:18;;;;;;;25.08;14.57;;;;;;;5.47;65.74;99811.09;5095107;28;20553;-80
2024/03/09 03:53:45;;;;;;;22.15;13.88;;;;;;;5.56;64.80;99808.56;5099591;28;20078;-81
2024/03/09 03:56:12;;;;;;;26.15;15.55;;;;;;;5.52;65.07;99796.66;5099897;28;20067;-81
2024/03/09 03:58:39;;;;;;;20.63;14.02;;;;;;;5.48;65.57;99805.72;5091973;28;20048;-80
2024/03/09 04:01:06;;;;;;;24.13;14.57;;;;;;;5.51;65.54;99800.22;5081669;28;20086;-81
2024/03/09 04:03:37;;;;;;;23.50;14.48;;;;;;;5.50;65.55;99803.81;5080791;28;20054;-80
2024/03/09 04:06:07;;;;;;;24.52;15.18;;;;;;;5.51;65.63;99796.78;5090691;28;20041;-81
2024/03/09 04:08:36;;;;;;;22.02;14.60;;;;;;;5.52;65.18;99791.41;5088126;28;20081;-80
2024/03/09 04:11:04;;;;;;;20.40;13.57;;;;;;;5.50;65.89;99792.50;5090644;28;20141;-78
2024/03/09 04:13:30;;;;;;;25.58;15.15;;;;;;;5.54;64.99;99792.13;5085124;28;20044;-81
2024/03/09 04:15:57;;;;;;;27.17;15.52;;;;;;;5.58;64.77;99792.69;5095651;28;20064;-78
2024/03/09 04:18:26;;;;;;;24.67;15.32;;;;;;;5.58;64.46;99797.94;5078154;28;20135;-79
2024/03/09 04:20:53;;;;;;;22.00;15.25;;;;;;;5.54;64.74;99800.00;5087712;28;20117;-79
2024/03/09 04:23:21;;;;;;;22.05;14.25;;;;;;;5.53;65.05;99798.31;5092275;28;20478;-79
2024/03/09 04:26:11;;;;;;;24.13;14.85;;;;;;;5.60;64.89;99789.97;5092947;28;20048;-81
2024/03/09 04:29:07;;;;;;;23.08;14.88;;;;;;;5.56;65.15;99792.00;5082262;28;20048;-81
2024/03/09 04:31:36;;;;;;;22.35;14.90;;;;;;;5.55;65.00;99780.66;5091060;28;20048;-80
2024/03/09 04:34:23;;;;;;;22.65;14.80;;;;;;;5.52;65.43;99786.16;5104857;28;20166;-80
2024/03/09 04:42:59;;;;;;;22.52;14.50;;;;;;;5.50;64.91;99782.81;5099564;28;20063;-80
2024/03/09 04:45:30;;;;;;;23.63;14.30;;;;;;;5.49;65.47;99783.78;5095496;28;20032;-79
2024/03/09 04:48:05;;;;;;;22.20;14.45;;;;;;;5.51;64.91;99781.88;5095981;28;20055;-80
2024/03/09 04:50:46;;;;;;;22.70;15.23;;;;;;;5.46;65.46;99781.41;5100861;28;20048;-80
2024/03/09 04:53:23;;;;;;;23.33;14.60;;;;;;;5.43;65.57;99779.00;5091626;28;20462;-81
2024/03/09 04:56:09;;;;;;;22.58;14.57;;;;;;;5.43;64.73;99776.38;5097545;28;20112;-79
2024/03/09 04:58:38;;;;;;;25.98;14.93;;;;;;;5.38;65.00;99777.72;5082407;28;20040;-79
2024/03/09 05:01:08;;;;;;;23.77;15.13;;;;;;;5.39;64.79;99776.75;5089631;28;20055;-79
2024/03/09 05:03:38;;;;;;;23.98;15.57;;;;;;;5.35;65.25;99773.53;5085127;28;20048;-81
2024/03/09 05:06:05;;;;;;;24.58;15.77;;;;;;;5.35;65.06;99765.66;5089636;28;20059;-80
2024/03/09 05:08:31;;;;;;;24.80;15.88;;;;;;;5.32;65.06;99752.81;5081434;28;20078;-80
2024/03/09 05:11:03;;;;;;;25.67;15.48;;;;;;;5.32;65.25;99760.69;5090047;28;20040;-81
2024/03/09 05:13:32;;;;;;;23.33;15.40;;;;;;;5.28;65.37;99756.63;5090309;28;20059;-82
2024/03/09 05:16:00;;;;;;;25.45;15.68;;;;;;;5.31;64.98;99764.25;5090655;28;20500;-80
2024/03/09 05:18:30;;;;;;;28.00;15.57;;;;;;;5.33;64.69;99764.97;5094303;28;20078;-80
2024/03/09 05:20:56;;;;;;;23.27;15.15;;;;;;;5.27;65.36;99757.59;5098003;28;20059;-80
2024/03/09 05:23:23;;;;;;;25.83;15.10;;;;;;;5.29;65.44;99755.66;5100900;28;20044;-81
2024/03/09 05:25:50;;;;;;;24.77;14.95;;;;;;;5.27;65.97;99754.97;5099706;28;20497;-81
2024/03/09 05:28:19;;;;;;;22.77;15.05;;;;;;;5.27;65.20;99752.34;5084783;28;20065;-81
2024/03/09 05:30:46;;;;;;;26.73;16.23;;;;;;;5.29;65.79;99755.66;5092013;28;20090;-80
2024/03/09 05:33:14;;;;;;;22.77;15.27;;;;;;;5.23;66.07;99737.81;5080109;28;20084;-79
2024/03/09 05:35:41;;;;;;;24.77;15.45;;;;;;;5.22;65.69;99747.47;5079921;28;20044;-79
2024/03/09 05:38:08;;;;;;;24.13;15.07;;;;;;;5.24;65.54;99747.34;5096128;28;20048;-82
2024/03/09 05:40:35;;;;;;;25.45;15.93;;;;;;;5.22;65.95;99750.09;5086523;28;20050;-80
2024/03/09 05:43:06;;;;;;;28.30;16.55;;;;;;;5.21;65.84;99751.03;5081735;28;20053;-80
2024/03/09 05:45:36;;;;;;;27.23;16.15;;;;;;;5.21;65.89;99734.47;5083162;28;20123;-79
2024/03/09 05:48:03;;;;;;;23.63;15.75;;;;;;;5.19;65.95;99731.97;5093482;28;20048;-80
2024/03/09 05:50:32;;;;;;;27.90;16.20;;;;;;;5.15;66.31;99741.03;5085814;28;20432;-80
2024/03/09 05:53:00;;;;;;;24.85;15.15;;;;;;;5.16;65.97;99736.63;5079649;28;20052;-80
2024/03/09 05:55:27;;;;;;;24.52;15.32;;;;;;;5.15;66.21;99719.22;5098631;28;20120;-80
2024/03/09 05:57:55;;;;;;;25.98;16.45;;;;;;;5.14;66.18;99728.88;5080067;28;20105;-80
2024/03/09 06:00:25;;;;;;;26.30;16.58;;;;;;;5.14;66.37;99755.09;5086279;28;20194;-81
2024/03/09 06:02:52;;;;;;;25.33;16.52;;;;;;;5.14;66.33;99751.66;5078120;28;20048;-81
2024/03/09 06:05:19;;;;;;;24.20;15.38;;;;;;;5.08;66.96;99745.91;5078335;28;20053;-80
2024/03/09 06:07:47;;;;;;;27.88;15.80;;;;;;;5.08;67.11;99755.56;5085869;28;20078;-80
2024/03/09 06:10:16;;;;;;;24.63;15.55;;;;;;;5.02;67.54;99746.41;5085070;28;20137;-81
2024/03/09 06:12:44;;;;;;;29.15;16.77;;;;;;;5.03;67.01;99753.31;5086442;28;20395;-81
2024/03/09 06:15:14;;;;;;;24.73;15.75;;;;;;;5.06;67.08;99757.50;5094598;28;20395;-79
2024/03/09 06:17:41;;;;;;;27.67;16.88;;;;;;;5.05;66.95;99759.28;5090164;28;20291;-80
2024/03/09 06:20:09;;;;;;;24.75;15.80;;;;;;;5.04;67.51;99752.38;5085306;28;20056;-80
2024/03/09 06:22:36;;;;;;;27.08;17.67;;;;;;;4.98;68.00;99760.72;5077739;28;20076;-79
2024/03/09 06:25:04;;;;;;;27.05;17.17;;;;;;;4.98;67.33;99771.19;5085994;28;20100;-81
2024/03/09 06:27:32;;;;;;;27.88;16.50;;;;;;;4.98;67.56;99763.31;5078572;28;20045;-81
2024/03/09 06:29:59;;;;;;;28.85;16.70;;;;;;;4.96;68.02;99765.25;5077602;28;20071;-81
2024/03/09 06:32:26;;;;;;;27.30;17.08;;;;;;;4.97;68.33;99766.09;5083293;28;20502;-81
2024/03/09 06:34:54;;;;;;;26.20;16.33;;;;;;;4.94;68.27;99767.13;5090713;28;20044;-82
2024/03/09 06:37:22;;;;;;;28.55;16.95;;;;;;;4.96;68.01;99764.41;5083389;28;20044;-81
2024/03/09 06:39:48;;;;;;;25.73;16.08;;;;;;;4.95;67.95;99766.19;5086191;28;20053;-81
2024/03/09 06:42:18;;;;;;;25.85;17.30;;;;;;;4.97;68.21;99764.28;5081879;28;20112;-81
2024/03/09 06:44:45;;;;;;;26.40;16.13;;;;;;;4.98;68.10;99759.88;5087728;28;20093;-81
2024/03/09 06:47:13;;;;;;;24.85;16.13;;;;;;;5.06;67.77;99757.50;5083190;28;20079;-79
2024/03/09 06:49:40;;;;;;;27.50;15.90;;;;;;;5.29;67.00;99768.78;5087548;28;20056;-79
2024/03/09 06:52:07;;;;;;;30.27;17.38;;;;;;;5.46;66.41;99765.66;5086605;28;20059;-80
2024/03/09 06:54:34;;;;;;;26.63;15.93;;;;;;;5.88;65.26;99763.13;5093471;28;20044;-80
2024/03/09 06:57:00;;;;;;;25.65;16.02;;;;;;;6.14;63.71;99763.66;5082428;28;20086;-80
2024/03/09 06:59:28;;;;;;;25.80;16.17;;;;;;;6.27;63.63;99761.66;5085026;28;20076;-81
2024/03/09 07:01:57;;;;;;;28.35;17.13;;;;;;;6.31;62.81;99762.25;5090357;28;20048;-82
2024/03/09 07:04:25;;;;;;;27.38;16.27;;;;;;;6.10;64.12;99775.38;5090019;28;20510;-81
2024/03/09 07:06:52;;;;;;;28.25;16.40;;;;;;;6.49;62.99;99768.59;5088680;28;20048;-80
2024/03/09 07:09:20;;;;;;;24.70;15.88;;;;;;;6.96;61.53;99766.31;5088175;28;20138;-80
2024/03/09 07:11:46;;;;;;;24.48;15.55;;;;;;;7.37;59.80;99771.56;5085410;28;20072;-77
2024/03/09 07:14:13;;;;;;;24.92;15.98;;;;;;;7.45;59.61;99774.38;5087720;28;20090;-79
2024/03/09 07:16:42;;;;;;;24.17;15.75;;;;;;;7.63;58.79;99777.16;5086524;28;20052;-79
2024/03/09 07:19:08;;;;;;;24.83;15.50;;;;;;;7.55;58.49;99775.25;5093048;28;20106;-80
2024/03/09 07:21:35;;;;;;;23.40;15.57;;;;;;;7.40;58.59;99764.25;5094185;28;20048;-80
2024/03/09 07:24:01;;;;;;;24.48;15.90;;;;;;;7.64;58.53;99774.41;5089664;28;20106;-81
2024/03/09 07:26:30;;;;;;;25.65;16.42;;;;;;;7.55;58.25;99760.28;5087695;28;20070;-81
2024/03/09 07:28:58;;;;;;;24.77;15.98;;;;;;;7.54;58.23;99769.13;5095841;28;20053;-79
2024/03/09 07:31:27;;;;;;;25.42;15.77;;;;;;;7.97;57.04;99764.47;5106049;28;20082;-80
2024/03/09 07:33:56;;;;;;;25.30;16.70;;;;;;;7.64;57.84;99763.06;5107527;28;20059;-80
2024/03/09 07:36:22;;;;;;;22.33;16.05;;;;;;;7.99;56.71;99752.81;5089695;28;20083;-81
2024/03/09 07:38:49;;;;;;;22.80;14.85;;;;;;;7.88;57.29;99760.84;5091589;28;20104;-80
2024/03/09 07:41:16;;;;;;;24.48;16.42;;;;;;;7.90;57.11;99761.53;5087348;28;20104;-82
2024/03/09 07:43:43;;;;;;;24.42;15.77;;;;;;;8.05;56.66;99752.25;5092887;28;20044;-83
2024/03/09 07:46:10;;;;;;;24.98;15.88;;;;;;;7.93;57.44;99742.81;5099025;28;20067;-78
2024/03/09 07:48:37;;;;;;;22.95;15.63;;;;;;;8.09;56.79;99748.38;5089217;28;20109;-81
2024/03/09 07:54:28;;;;;;;24.48;15.98;;;;;;;8.35;56.24;99739.88;5078849;28;20584;-79
2024/03/09 07:56:56;;;;;;;25.58;16.85;;;;;;;7.90;56.46;99744.88;5097557;28;20040;-79
2024/03/09 07:59:24;;;;;;;25.23;16.13;;;;;;;8.21;56.57;99741.13;5087915;28;20422;-80
2024/03/09 08:01:51;;;;;;;24.73;16.80;;;;;;;7.87;57.29;99732.84;5088337;28;20087;-80
2024/03/09 08:04:17;;;;;;;23.48;16.58;;;;;;;7.99;56.68;99751.97;5089905;28;20047;-80
2024/03/09 08:06:47;;;;;;;22.75;14.98;;;;;;;8.32;56.09;99746.25;5093914;28;20045;-79
2024/03/09 08:09:15;;;;;;;25.67;17.45;;;;;;;7.99;56.49;99744.06;5097227;28;20048;-79
2024/03/09 08:11:44;;;;;;;27.80;17.77;;;;;;;7.86;56.85;99739.09;5096286;28;20060;-79
2024/03/09 08:14:11;;;;;;;24.88;16.23;;;;;;;8.01;56.52;99742.97;5092666;28;20080;-83
2024/03/09 08:16:51;;;;;;;26.90;17.33;;;;;;;8.08;56.08;99738.81;5109996;28;20041;-81
2024/03/09 08:19:26;;;;;;;25.77;16.65;;;;;;;8.35;56.03;99732.81;5091961;28;20049;-80
2024/03/09 08:21:52;;;;;;;25.85;15.75;;;;;;;8.25;56.93;99737.22;5096776;28;20053;-80
2024/03/09 08:24:25;;;;;;;26.55;17.38;;;;;;;8.42;56.45;99738.34;5094269;28;20048;-81
2024/03/09 08:27:03;;;;;;;;;;;;;;;8.55;55.51;99724.88;5109722;28;20040;-79
2024/03/09 08:29:35;;;;;;;24.48;16.10;;;;;;;8.42;55.53;99725.16;5089545;28;19924;-80
2024/03/09 08:32:06;;;;;;;24.10;15.70;;;;;;;8.45;56.18;99722.25;5100236;28;20058;-79
2024/03/09 08:34:38;;;;;;;23.35;15.70;;;;;;;9.04;54.30;99733.41;5102337;28;20105;-79
2024/03/09 08:37:09;;;;;;;23.60;15.52;;;;;;;8.53;55.40;99726.81;5090678;28;20049;-80
2024/03/09 08:39:36;;;;;;;25.70;16.35;;;;;;;8.76;54.69;99725.50;5096180;28;20068;-80
2024/03/09 08:42:06;;;;;;;24.10;16.10;;;;;;;8.86;54.50;99714.88;5083933;28;20052;-80
2024/03/09 08:44:35;;;;;;;25.38;16.77;;;;;;;9.25;52.78;99726.09;5089584;28;20051;-80
2024/03/09 08:47:03;;;;;;;22.48;15.32;;;;;;;9.07;54.14;99715.50;5091453;28;20048;-78
2024/03/09 08:49:30;;;;;;;23.45;16.15;;;;;;;8.88;54.31;99718.19;5101560;28;20059;-79
2024/03/09 08:51:58;;;;;;;23.38;15.32;;;;;;;8.98;53.83;99724.28;5100265;28;20108;-79
2024/03/09 08:54:27;;;;;;;21.60;15.88;;;;;;;8.63;54.47;99708.31;5090669;28;20048;-79
2024/03/09 08:56:55;;;;;;;25.38;16.27;;;;;;;8.84;53.31;99708.94;5086603;28;20048;-80
2024/03/09 08:59:26;;;;;;;24.20;17.00;;;;;;;8.98;53.35;99716.38;5084323;28;20052;-79
2024/03/09 09:01:53;;;;;;;25.55;16.63;;;;;;;9.02;54.60;99699.28;5088300;28;20465;-79
2024/03/09 09:04:20;;;;;;;24.63;16.20;;;;;;;9.29;53.18;99705.50;5086168;28;20071;-80
2024/03/09 09:06:46;;;;;;;28.85;17.35;;;;;;;9.04;54.27;99696.47;5082617;28;20041;-78
2024/03/09 09:09:24;;;;;;;25.23;16.77;;;;;;;9.14;54.07;99697.25;5095870;28;20059;-79
2024/03/09 09:11:51;;;;;;;24.25;16.00;;;;;;;8.99;54.61;99701.38;5081219;28;20132;-80
2024/03/09 09:14:18;;;;;;;23.10;15.73;;;;;;;8.96;54.83;99694.56;5079294;28;20076;-79
2024/03/09 09:16:47;;;;;;;23.30;16.08;;;;;;;8.80;54.55;99689.09;5080019;28;20044;-80
2024/03/09 09:19:14;;;;;;;22.27;15.95;;;;;;;8.52;55.41;99681.13;5078231;28;20123;-81
2024/03/09 09:21:41;;;;;;;22.75;16.15;;;;;;;8.70;55.17;99693.56;5089874;28;20043;-80
2024/03/09 09:24:08;;;;;;;22.20;15.65;;;;;;;8.62;54.62;99686.41;5087292;28;20071;-80
2024/03/09 09:26:34;;;;;;;25.63;17.27;;;;;;;8.59;55.19;99679.59;5098273;28;20625;-80
2024/03/09 09:29:03;;;;;;;25.88;16.95;;;;;;;8.75;54.92;99686.03;5077135;28;20083;-78
2024/03/09 09:31:31;;;;;;;25.35;15.57;;;;;;;8.88;54.90;99686.53;5074810;28;20502;-80
2024/03/09 09:33:59;;;;;;;24.02;15.43;;;;;;;9.09;54.03;99686.28;5085763;28;20053;-80
2024/03/09 09:36:26;;;;;;;25.10;16.60;;;;;;;9.25;55.19;99677.75;5077702;28;20119;-80
2024/03/09 09:38:53;;;;;;;25.25;16.83;;;;;;;9.09;54.32;99676.56;5086876;28;20092;-80
2024/03/09 09:41:20;;;;;;;23.90;17.40;;;;;;;9.18;54.19;99685.41;5085077;28;20136;-79
2024/03/09 09:43:48;;;;;;;21.70;15.52;;;;;;;9.16;53.99;99689.19;5085620;28;20194;-80
2024/03/09 09:46:16;;;;;;;26.25;15.77;;;;;;;9.16;53.65;99681.28;5097901;28;20067;-82
2024/03/09 09:48:44;;;;;;;24.27;16.77;;;;;;;9.28;53.59;99674.78;5083737;28;20071;-83
2024/03/09 09:51:14;;;;;;;23.65;16.50;;;;;;;9.38;53.29;99672.09;5100467;28;20578;-79
2024/03/09 09:53:42;;;;;;;24.17;16.02;;;;;;;9.35;53.67;99668.75;5103788;28;20044;-80
2024/03/09 09:56:09;;;;;;;25.75;17.40;;;;;;;9.33;53.56;99662.81;5100000;28;20121;-80
2024/03/09 09:58:35;;;;;;;23.02;16.15;;;;;;;9.51;53.90;99656.69;5095745;28;20418;-80
2024/03/09 10:01:02;;;;;;;24.08;16.65;;;;;;;9.66;53.42;99649.91;5082465;28;20091;-81
2024/03/09 10:03:30;;;;;;;26.50;16.13;;;;;;;9.81;53.60;99650.16;5090591;28;20045;-81
2024/03/09 10:05:57;;;;;;;23.63;16.05;;;;;;;9.89;52.52;99642.31;5083053;28;20051;-80
2024/03/09 10:08:26;;;;;;;23.70;16.60;;;;;;;9.82;52.70;99650.03;5086997;28;20048;-80
2024/03/09 10:10:53;;;;;;;24.48;16.33;;;;;;;9.54;52.83;99656.38;5101598;28;20052;-80
2024/03/09 10:13:24;;;;;;;23.70;15.82;;;;;;;9.87;53.61;99644.28;5093931;28;20063;-81
2024/03/09 10:15:51;;;;;;;25.52;17.52;;;;;;;10.16;52.50;99641.34;5091016;28;20400;-81
2024/03/09 10:18:19;;;;;;;23.77;16.20;;;;;;;10.32;52.07;99640.66;5093274;28;20056;-81
2024/03/09 10:20:49;;;;;;;23.55;15.18;;;;;;;10.45;51.28;99635.75;5092434;28;20130;-80
2024/03/09 10:23:19;;;;;;;22.80;15.98;;;;;;;10.49;51.11;99630.97;5093992;28;20052;-81
2024/03/09 10:26:14;;;;;;;23.27;16.55;;;;;;;10.41;51.82;99639.69;5084552;28;20052;-81
2024/03/09 10:28:41;;;;;;;23.55;15.70;;;;;;;10.54;51.61;99629.53;5080318;28;20098;-82
2024/03/09 10:40:14;;;;;;;24.42;16.30;;;;;;;10.60;50.40;99623.59;4977906;28;20045;-80
2024/03/09 10:43:13;;;;;;;24.38;16.60;;;;;;;10.71;50.30;99625.09;5078121;28;20074;-82
2024/03/09 10:45:42;;;;;;;25.92;16.45;;;;;;;10.88;50.39;99628.63;5078348;28;20054;-80
2024/03/09 10:48:20;;;;;;;23.58;15.82;;;;;;;10.72;49.53;99612.72;5088028;28;20530;-82
2024/03/09 10:51:14;;;;;;;24.25;17.10;;;;;;;10.99;49.52;99614.28;5095400;28;20048;-80
2024/03/09 10:53:51;;;;;;;23.95;16.08;;;;;;;11.38;49.67;99604.75;5097414;28;20051;-80
2024/03/09 11:00:12;;;;;;;22.48;16.10;;;;;;;11.38;48.73;99599.47;5080632;28;20048;-78
2024/03/09 11:02:46;;;;;;;23.90;16.58;;;;;;;11.19;49.18;99590.97;5077173;28;20056;-79
2024/03/09 11:05:22;;;;;;;22.05;16.33;;;;;;;11.33;48.42;99587.69;5098393;28;20048;-80
2024/03/09 11:08:32;;;;;;;24.23;16.60;;;;;;;11.27;48.28;99583.06;5104059;28;20174;-79
2024/03/09 11:11:04;;;;;;;21.65;15.23;;;;;;;11.34;48.38;99578.72;5096205;28;20078;-79
2024/03/09 11:13:31;;;;;;;23.23;16.02;;;;;;;11.53;47.60;99567.81;5079708;28;20056;-79
2024/03/09 11:19:05;;;;;;;24.90;16.00;;;;;;;11.64;49.00;99564.81;5092260;28;20106;-80
2024/03/09 11:21:58;;;;;;;22.30;15.70;;;;;;;11.71;46.95;99564.16;5083098;28;20106;-78
2024/03/09 11:24:43;;;;;;;20.35;14.77;;;;;;;11.66;47.14;99564.69;5091323;28;20386;-80
2024/03/09 11:27:42;;;;;;;;;;;;;;;;;;;;;
2024/03/09 11:33:38;;;;;;;21.08;15.20;;;;;;;12.31;47.14;99563.72;5083879;28;20040;-80
2024/03/09 11:36:39;;;;;;;24.20;15.90;;;;;;;12.11;46.27;99566.75;5082310;28;20048;-78
2024/03/09 11:39:59;;;;;;;;;;;;;;;;;;;;;
2024/03/09 12:06:50;;;;;;;22.17;14.80;;;;;;;12.75;44.54;99510.09;4984124;28;20168;-81
2024/03/09 12:09:25;;;;;;;19.27;14.27;;;;;;;12.85;44.00;99513.31;4978746;28;20198;-81
2024/03/09 12:18:45;;;;;;;20.58;13.82;;;;;;;12.91;44.24;99507.34;5073373;28;20106;-79
2024/03/09 12:21:54;;;;;;;19.10;14.00;;;;;;;13.00;43.96;99489.50;5030362;28;20064;-80
2024/03/09 12:35:35;;;;;;;20.52;13.27;;;;;;;13.16;43.34;99487.53;4848354;29;20061;-81
2024/03/09 12:59:31;;;;;;;18.55;12.98;;;;;;;13.62;42.10;99462.72;4893461;29;20059;-81
2024/03/09 13:02:26;;;;;;;18.05;12.63;;;;;;;13.69;41.40;99455.66;4906367;29;20049;-80
2024/03/09 13:15:06;;;;;;;18.88;12.70;;;;;;;13.80;41.30;99427.81;5017987;28;20081;-80
2024/03/09 13:21:29;;;;;;;16.05;11.20;;;;;;;14.08;40.32;99420.78;5042836;28;20507;-81
2024/03/09 13:23:58;;;;;;;16.13;10.68;;;;;;;14.13;40.50;99417.56;5009578;28;20049;-80
2024/03/09 13:26:32;;;;;;;14.95;9.93;;;;;;;14.16;40.50;99423.34;5078096;28;20425;-80
2024/03/09 13:29:06;;;;;;;17.13;11.10;;;;;;;14.03;41.14;99420.53;5089957;28;20045;-81
2024/03/09 13:31:33;;;;;;;16.27;11.07;;;;;;;14.27;40.73;99407.88;5086817;28;20106;-80